createdAt,value
2017-08-07T11:30:46.449Z,35.77
2017-08-07T11:31:34.648Z,23.88
2017-08-07T11:31:56.334Z,24.55
2017-08-07T11:32:58.963Z,24.06
2017-08-07T11:33:20.781Z,23.83
2017-08-07T11:33:42.542Z,24.28
2017-08-07T11:34:04.273Z,24.71
2017-08-07T11:34:31.786Z,25.25
2017-08-07T11:35:35.658Z,25.22
2017-08-07T11:35:57.440Z,24.08
2017-08-07T11:37:01.780Z,26.41
2017-08-07T11:37:23.629Z,26.74
2017-08-07T11:37:50.475Z,24.91
2017-08-07T11:38:12.236Z,25.18
2017-08-07T11:38:38.706Z,25.31
2017-08-07T11:39:00.439Z,25.13
2017-08-07T11:39:22.190Z,25.06
2017-08-07T11:39:43.928Z,25.59
2017-08-07T11:40:05.708Z,25.45
2017-08-07T11:41:08.233Z,25.88
2017-08-07T11:41:29.990Z,25.71
2017-08-07T11:41:51.924Z,25.20
2017-08-07T11:42:13.732Z,24.63
2017-08-07T11:42:35.428Z,24.05
2017-08-07T11:42:57.133Z,24.59
2017-08-07T11:43:18.887Z,23.69
2017-08-07T11:43:40.828Z,24.77
2017-08-07T11:44:02.640Z,24.60
2017-08-07T11:44:24.331Z,24.50
2017-08-07T11:44:46.118Z,23.99
2017-08-07T11:45:07.811Z,24.11
2017-08-07T11:45:34.300Z,24.67
2017-08-07T11:45:56.076Z,24.96
2017-08-07T11:46:17.889Z,24.41
2017-08-07T11:46:39.630Z,24.99
2017-08-07T11:47:01.462Z,24.98
2017-08-07T11:47:23.158Z,23.91
2017-08-07T11:47:44.850Z,24.12
2017-08-07T11:48:06.546Z,24.79
2017-08-07T11:48:28.250Z,24.99
2017-08-07T11:48:49.978Z,25.71
2017-08-07T11:49:11.735Z,26.71
2017-08-07T11:49:33.559Z,25.91
2017-08-07T11:49:55.340Z,24.70
2017-08-07T11:50:21.815Z,26.29
2017-08-07T11:50:43.522Z,25.70
2017-08-07T11:51:10.008Z,26.63
2017-08-07T11:51:36.860Z,25.49
2017-08-07T11:51:58.601Z,25.20
2017-08-07T11:52:20.396Z,23.47
2017-08-07T11:52:42.237Z,23.53
2017-08-07T11:53:04.062Z,22.38
2017-08-07T11:53:25.875Z,23.12
2017-08-07T11:53:52.440Z,22.81
2017-08-07T11:54:18.956Z,22.94
2017-08-07T11:54:40.720Z,22.81
2017-08-07T11:55:07.208Z,23.13
2017-08-07T11:55:28.941Z,24.23
2017-08-07T11:55:55.446Z,24.65
2017-08-07T11:56:17.191Z,24.67
2017-08-07T11:56:43.678Z,25.20
2017-08-07T11:57:05.406Z,24.73
2017-08-07T11:57:31.912Z,25.02
2017-08-07T11:57:53.728Z,23.10
2017-08-07T11:58:52.225Z,25.44
2017-08-07T11:59:13.792Z,25.72
2017-08-07T11:59:35.517Z,24.53
2017-08-07T11:59:57.184Z,24.55
2017-08-07T12:00:19.884Z,25.45
2017-08-07T12:00:41.698Z,25.04
2017-08-07T12:01:03.417Z,24.48
2017-08-07T12:01:25.109Z,25.67
2017-08-07T12:01:51.605Z,25.57
2017-08-07T12:02:13.358Z,25.56
2017-08-07T12:03:20.674Z,24.02
2017-08-07T12:03:42.386Z,23.21
2017-08-07T12:04:49.921Z,24.63
2017-08-07T12:05:11.696Z,25.08
2017-08-07T12:05:42.965Z,24.62
2017-08-07T12:06:04.666Z,24.08
2017-08-07T12:07:07.258Z,25.02
2017-08-07T12:07:29.070Z,24.96
2017-08-07T12:07:50.877Z,24.96
2017-08-07T12:08:17.454Z,23.42
2017-08-07T12:08:39.253Z,23.67
2017-08-07T12:09:05.733Z,24.02
2017-08-07T12:09:27.617Z,22.42
2017-08-07T12:10:26.051Z,23.84
2017-08-07T12:10:47.724Z,23.02
2017-08-07T12:11:09.433Z,23.24
2017-08-07T12:11:31.141Z,23.39
2017-08-07T12:11:52.838Z,24.54
2017-08-07T12:12:14.532Z,24.63
2017-08-07T12:12:36.230Z,24.50
2017-08-07T12:12:57.955Z,24.12
2017-08-07T12:13:19.654Z,23.81
2017-08-07T12:13:41.368Z,25.75
2017-08-07T12:14:03.078Z,23.97
2017-08-07T12:14:24.773Z,23.07
2017-08-07T12:14:51.240Z,23.24
2017-08-07T12:15:12.934Z,23.20
2017-08-07T12:15:34.636Z,22.90
2017-08-07T12:15:56.347Z,22.67
2017-08-07T12:16:18.031Z,22.69
2017-08-07T12:16:39.734Z,24.99
2017-08-07T12:17:01.424Z,24.13
2017-08-07T12:17:23.117Z,25.08
2017-08-07T12:17:49.591Z,24.80
2017-08-07T12:18:11.309Z,23.90
2017-08-07T12:18:37.793Z,22.99
2017-08-07T12:18:59.477Z,23.39
2017-08-07T12:19:21.169Z,24.55
2017-08-07T12:19:42.871Z,24.74
2017-08-07T12:20:04.565Z,24.71
2017-08-07T12:20:26.266Z,25.01
2017-08-07T12:20:52.752Z,25.27
2017-08-07T12:21:14.434Z,25.22
2017-08-07T12:21:36.127Z,25.13
2017-08-07T12:22:02.601Z,24.53
2017-08-07T12:22:24.288Z,24.41
2017-08-07T12:22:50.765Z,23.59
2017-08-07T12:23:12.487Z,24.48
2017-08-07T12:23:38.963Z,24.78
2017-08-07T12:24:00.662Z,24.83
2017-08-07T12:24:22.382Z,24.49
2017-08-07T12:24:48.866Z,24.83
2017-08-07T12:25:10.548Z,24.92
2017-08-07T12:25:32.240Z,25.34
2017-08-07T12:25:53.934Z,25.01
2017-08-07T12:26:25.193Z,24.41
2017-08-07T12:26:47.004Z,24.74
2017-08-07T12:27:18.285Z,24.49
2017-08-07T12:27:40.046Z,23.00
2017-08-07T12:28:06.520Z,23.18
2017-08-07T12:28:28.409Z,23.14
2017-08-07T12:28:50.211Z,23.74
2017-08-07T12:29:48.650Z,23.24
2017-08-07T12:30:15.238Z,24.10
2017-08-07T12:30:46.486Z,24.38
2017-08-07T12:31:08.275Z,24.78
2017-08-07T12:31:30.079Z,24.61
2017-08-07T12:31:51.870Z,24.43
2017-08-07T12:32:44.983Z,22.79
2017-08-07T12:33:06.765Z,23.14
2017-08-07T12:33:28.588Z,24.04
2017-08-07T12:33:50.400Z,24.02
2017-08-07T12:34:21.649Z,24.49
2017-08-07T12:34:43.344Z,24.54
2017-08-07T12:35:41.958Z,23.23
2017-08-07T12:36:13.232Z,23.39
2017-08-07T12:36:35.091Z,22.90
2017-08-07T12:37:33.532Z,24.72
2017-08-07T12:37:55.339Z,24.43
2017-08-07T12:38:26.578Z,22.51
2017-08-07T12:38:48.353Z,22.65
2017-08-07T12:39:19.605Z,21.52
2017-08-07T12:39:41.426Z,21.81
2017-08-07T12:40:12.687Z,21.91
2017-08-07T12:40:34.530Z,22.47
2017-08-07T12:40:56.323Z,23.97
2017-08-07T12:41:18.137Z,23.74
2017-08-07T12:41:39.908Z,23.01
2017-08-07T12:42:11.152Z,22.93
2017-08-07T12:42:32.928Z,23.59
2017-08-07T12:43:35.556Z,22.37
2017-08-07T12:43:57.332Z,22.37
2017-08-07T12:44:28.592Z,22.58
2017-08-07T12:44:50.384Z,22.78
2017-08-07T12:45:12.080Z,22.76
2017-08-07T12:45:33.888Z,22.42
2017-08-07T12:45:55.640Z,22.63
2017-08-07T12:46:22.230Z,23.30
2017-08-07T12:46:44.082Z,23.18
2017-08-07T12:47:05.765Z,23.30
2017-08-07T12:47:27.633Z,22.86
2017-08-07T12:47:49.419Z,22.80
2017-08-07T12:48:11.212Z,22.28
2017-08-07T12:49:09.828Z,23.32
2017-08-07T12:50:08.339Z,23.76
2017-08-07T12:50:30.112Z,23.56
2017-08-07T12:51:28.675Z,24.15
2017-08-07T12:51:55.156Z,24.48
2017-08-07T12:52:21.713Z,23.25
2017-08-07T12:52:43.583Z,23.56
2017-08-07T12:53:14.824Z,23.73
2017-08-07T12:53:36.554Z,23.70
2017-08-07T12:54:44.118Z,23.91
2017-08-07T12:55:05.944Z,23.97
2017-08-07T12:55:37.217Z,23.44
2017-08-07T12:55:59.080Z,23.62
2017-08-07T12:56:20.873Z,23.62
2017-08-07T12:56:42.620Z,23.47
2017-08-07T12:57:04.410Z,23.30
2017-08-07T12:57:35.678Z,23.32
2017-08-07T12:57:57.474Z,23.71
2017-08-07T12:58:19.255Z,22.52
2017-08-07T12:58:50.502Z,23.17
2017-08-07T12:59:12.380Z,23.56
2017-08-07T12:59:38.852Z,23.73
2017-08-07T13:00:00.757Z,23.71
2017-08-07T13:00:27.314Z,23.71
2017-08-07T13:00:49.102Z,23.25
2017-08-07T13:01:15.695Z,23.69
2017-08-07T13:01:37.509Z,24.50
2017-08-07T13:01:59.238Z,24.91
2017-08-07T13:02:20.961Z,24.69
2017-08-07T13:02:44.660Z,24.78
2017-08-07T13:03:06.509Z,25.44
2017-08-07T13:03:28.311Z,25.40
2017-08-07T13:03:54.914Z,25.62
2017-08-07T13:04:16.541Z,24.75
2017-08-07T13:04:38.412Z,25.33
2017-08-07T13:05:05.450Z,24.85
2017-08-07T13:05:27.250Z,24.25
2017-08-07T13:05:58.501Z,23.76
2017-08-07T13:06:20.254Z,22.99
2017-08-07T13:06:41.947Z,23.00
2017-08-07T13:07:03.789Z,24.13
2017-08-07T13:07:25.597Z,24.90
2017-08-07T13:07:52.079Z,24.88
2017-08-07T13:08:13.856Z,24.80
2017-08-07T13:08:40.323Z,25.17
2017-08-07T13:09:02.110Z,24.85
2017-08-07T13:09:28.666Z,23.44
2017-08-07T13:09:50.461Z,23.80
2017-08-07T13:10:12.267Z,24.39
2017-08-07T13:10:38.824Z,22.39
2017-08-07T13:11:00.617Z,22.74
2017-08-07T13:11:27.118Z,22.99
2017-08-07T13:11:48.826Z,23.21
2017-08-07T13:12:15.389Z,23.19
2017-08-07T13:12:37.290Z,23.53
2017-08-07T13:13:03.850Z,23.55
2017-08-07T13:13:25.622Z,23.33
2017-08-07T13:13:52.098Z,23.90
2017-08-07T13:14:13.921Z,24.40
2017-08-07T13:14:35.629Z,24.59
2017-08-07T13:15:02.097Z,24.26
2017-08-07T13:15:23.792Z,24.32
2017-08-07T13:16:31.118Z,22.68
2017-08-07T13:16:57.697Z,22.95
2017-08-07T13:17:28.957Z,22.43
2017-08-07T13:17:50.710Z,22.69
2017-08-07T13:18:53.213Z,23.38
2017-08-07T13:19:15.193Z,23.80
2017-08-07T13:19:36.991Z,25.21
2017-08-07T13:19:58.742Z,23.20
2017-08-07T13:20:20.487Z,24.04
2017-08-07T13:20:42.226Z,24.90
2017-08-07T13:21:04.043Z,23.90
2017-08-07T13:21:25.985Z,24.36
2017-08-07T13:21:57.249Z,24.23
2017-08-07T13:22:19.001Z,24.48
2017-08-07T13:23:17.394Z,24.00
2017-08-07T13:23:39.177Z,23.88
2017-08-07T13:24:10.435Z,24.02
2017-08-07T13:24:32.179Z,23.23
2017-08-07T13:24:53.888Z,23.45
2017-08-07T13:25:20.382Z,23.09
2017-08-07T13:25:42.068Z,23.57
2017-08-07T13:26:03.784Z,23.05
2017-08-07T13:26:30.257Z,23.88
2017-08-07T13:26:52.038Z,23.27
2017-08-07T13:27:13.780Z,23.34
2017-08-07T13:27:40.242Z,23.51
2017-08-07T13:28:01.953Z,23.58
2017-08-07T13:28:23.650Z,23.88
2017-08-07T13:28:50.121Z,24.15
2017-08-07T13:29:11.835Z,23.80
2017-08-07T13:29:38.318Z,24.72
2017-08-07T13:30:00.009Z,23.69
2017-08-07T13:30:31.253Z,23.58
2017-08-07T13:30:52.950Z,22.84
2017-08-07T13:31:14.651Z,23.08
2017-08-07T13:31:36.354Z,23.27
2017-08-07T13:31:58.069Z,23.90
2017-08-07T13:32:29.313Z,23.59
2017-08-07T13:32:51.010Z,23.98
2017-08-07T13:33:22.257Z,22.48
2017-08-07T13:33:43.965Z,22.55
2017-08-07T13:34:10.451Z,22.71
2017-08-07T13:34:32.184Z,22.52
2017-08-07T13:34:53.912Z,23.18
2017-08-07T13:35:15.638Z,22.35
2017-08-07T13:35:37.341Z,22.20
2017-08-07T13:35:59.045Z,22.34
2017-08-07T13:36:25.534Z,23.44
2017-08-07T13:36:47.227Z,23.57
2017-08-07T13:37:45.559Z,23.54
2017-08-07T13:38:07.249Z,23.92
2017-08-07T13:38:38.506Z,22.49
2017-08-07T13:39:00.199Z,23.09
2017-08-07T13:39:31.444Z,22.65
2017-08-07T13:39:53.170Z,22.82
2017-08-07T13:40:51.495Z,23.18
2017-08-07T13:41:13.215Z,22.44
2017-08-07T13:41:39.720Z,22.33
2017-08-07T13:42:01.508Z,22.26
2017-08-07T13:42:23.235Z,22.59
2017-08-07T13:42:49.709Z,22.73
2017-08-07T13:43:11.402Z,23.36
2017-08-07T13:43:33.135Z,23.58
2017-08-07T13:43:59.608Z,22.44
2017-08-07T13:44:21.314Z,22.45
2017-08-07T13:44:47.793Z,21.37
2017-08-07T13:45:09.481Z,21.28
2017-08-07T13:45:35.970Z,21.25
2017-08-07T13:45:57.684Z,21.63
2017-08-07T13:46:28.957Z,21.45
2017-08-07T13:46:50.629Z,21.67
2017-08-07T13:47:21.881Z,22.39
2017-08-07T13:47:43.585Z,22.53
2017-08-07T13:48:05.289Z,23.16
2017-08-07T13:48:31.792Z,22.31
2017-08-07T13:48:53.514Z,22.84
2017-08-07T13:49:20.064Z,22.25
2017-08-07T13:49:41.760Z,22.37
2017-08-07T13:50:03.461Z,22.03
2017-08-07T13:50:29.935Z,22.37
2017-08-07T13:50:51.661Z,22.46
2017-08-07T13:51:13.373Z,21.81
2017-08-07T13:51:39.871Z,21.35
2017-08-07T13:52:01.625Z,22.00
2017-08-07T13:52:28.107Z,22.44
2017-08-07T13:52:49.790Z,21.79
2017-08-07T13:53:16.261Z,22.11
2017-08-07T13:53:37.987Z,21.81
2017-08-07T13:53:59.691Z,21.63
2017-08-07T13:55:08.019Z,20.62
2017-08-07T13:55:39.280Z,21.44
2017-08-07T13:56:00.992Z,22.28
2017-08-07T13:56:22.729Z,22.33
2017-08-07T13:56:49.191Z,22.48
2017-08-07T13:57:10.890Z,21.80
2017-08-07T13:58:13.423Z,22.21
2017-08-07T13:58:35.150Z,21.70
2017-08-07T13:58:56.879Z,21.96
2017-08-07T13:59:28.131Z,21.77
2017-08-07T13:59:49.832Z,22.23
2017-08-07T14:00:17.327Z,22.09
2017-08-07T14:00:39.067Z,20.37
2017-08-07T14:01:10.327Z,20.22
2017-08-07T14:01:32.039Z,20.46
2017-08-07T14:01:53.784Z,20.74
2017-08-07T14:02:20.312Z,21.06
2017-08-07T14:02:42.087Z,21.02
2017-08-07T14:03:08.638Z,20.65
2017-08-07T14:03:30.441Z,21.44
2017-08-07T14:03:56.921Z,21.57
2017-08-07T14:04:18.656Z,21.80
2017-08-07T14:04:45.139Z,21.86
2017-08-07T14:05:06.866Z,21.02
2017-08-07T14:05:33.362Z,21.07
2017-08-07T14:05:56.156Z,22.49
2017-08-07T14:06:22.659Z,22.04
2017-08-07T14:06:49.134Z,21.67
2017-08-07T14:07:10.829Z,21.49
2017-08-07T14:07:37.312Z,21.63
2017-08-07T14:07:59.010Z,21.56
2017-08-07T14:08:25.483Z,20.15
2017-08-07T14:08:47.206Z,19.80
2017-08-07T14:09:13.694Z,19.59
2017-08-07T14:09:35.406Z,19.70
2017-08-07T14:09:57.124Z,19.49
2017-08-07T14:10:23.624Z,19.37
2017-08-07T14:10:45.359Z,19.51
2017-08-07T14:11:07.060Z,20.34
2017-08-07T14:12:05.438Z,21.58
2017-08-07T14:12:27.140Z,20.10
2017-08-07T14:12:48.845Z,20.15
2017-08-07T14:13:15.328Z,19.93
2017-08-07T14:13:37.046Z,20.51
2017-08-07T14:13:58.749Z,20.44
2017-08-07T14:14:20.463Z,19.83
2017-08-07T14:14:42.161Z,19.84
2017-08-07T14:15:03.861Z,19.76
2017-08-07T14:15:30.338Z,19.83
2017-08-07T14:15:52.040Z,20.23
2017-08-07T14:16:13.737Z,20.72
2017-08-07T14:16:40.213Z,20.06
2017-08-07T14:17:01.934Z,20.54
2017-08-07T14:17:28.415Z,20.81
2017-08-07T14:17:50.107Z,20.26
2017-08-07T14:18:11.826Z,21.11
2017-08-07T14:18:43.073Z,21.14
2017-08-07T14:19:04.770Z,21.22
2017-08-07T14:19:31.248Z,20.68
2017-08-07T14:19:52.975Z,20.74
2017-08-07T14:20:14.688Z,21.04
2017-08-07T14:20:41.183Z,20.70
2017-08-07T14:21:02.892Z,21.30
2017-08-07T14:21:24.599Z,21.21
2017-08-07T14:21:51.102Z,20.72
2017-08-07T14:22:12.891Z,20.87
2017-08-07T14:22:39.361Z,20.05
2017-08-07T14:23:01.051Z,19.08
2017-08-07T14:23:27.542Z,19.60
2017-08-07T14:23:49.265Z,19.11
2017-08-07T14:24:10.980Z,19.73
2017-08-07T14:24:37.461Z,18.73
2017-08-07T14:24:59.176Z,19.14
2017-08-07T14:25:25.661Z,19.74
2017-08-07T14:25:47.371Z,19.97
2017-08-07T14:26:13.875Z,20.39
2017-08-07T14:26:35.601Z,18.93
2017-08-07T14:27:02.091Z,19.53
2017-08-07T14:27:24.052Z,19.64
2017-08-07T14:27:45.626Z,19.83
2017-08-07T14:28:12.111Z,19.67
2017-08-07T14:28:33.830Z,19.83
2017-08-07T14:29:32.167Z,19.29
2017-08-07T14:30:03.424Z,19.16
2017-08-07T14:30:25.150Z,19.21
2017-08-07T14:30:51.655Z,19.60
2017-08-07T14:31:13.362Z,19.41
2017-08-07T14:31:40.040Z,19.26
2017-08-07T14:32:01.766Z,19.27
2017-08-07T14:32:23.680Z,19.28
2017-08-07T14:32:50.155Z,19.21
2017-08-07T14:33:11.864Z,19.59
2017-08-07T14:33:33.575Z,19.33
2017-08-07T14:34:00.077Z,19.37
2017-08-07T14:34:21.816Z,18.11
2017-08-07T14:35:24.354Z,19.35
2017-08-07T14:35:46.133Z,17.94
2017-08-07T14:36:07.865Z,18.11
2017-08-07T14:36:29.660Z,18.57
2017-08-07T14:36:51.366Z,19.21
2017-08-07T14:37:13.061Z,18.97
2017-08-07T14:37:34.751Z,18.03
2017-08-07T14:37:56.446Z,18.23
2017-08-07T14:38:18.233Z,19.24
2017-08-07T14:38:39.966Z,19.18
2017-08-07T14:39:38.364Z,19.32
2017-08-07T14:40:04.840Z,19.28
2017-08-07T14:40:26.538Z,18.37
2017-08-07T14:40:48.238Z,18.96
2017-08-07T14:41:09.956Z,18.43
2017-08-07T14:41:41.211Z,18.90
2017-08-07T14:42:02.993Z,19.60
2017-08-07T14:42:24.719Z,18.86
2017-08-07T14:42:46.431Z,18.35
2017-08-07T14:43:08.158Z,18.48
2017-08-07T14:43:29.856Z,17.90
2017-08-07T14:43:56.354Z,18.70
2017-08-07T14:44:18.077Z,18.85
2017-08-07T14:44:39.780Z,18.16
2017-08-07T14:45:01.474Z,19.12
2017-08-07T14:45:23.458Z,19.72
2017-08-07T14:45:45.015Z,18.84
2017-08-07T14:46:06.715Z,19.21
2017-08-07T14:46:28.422Z,19.65
2017-08-07T14:46:50.123Z,19.71
2017-08-07T14:47:11.838Z,18.88
2017-08-07T14:47:33.570Z,18.89
2017-08-07T14:48:04.826Z,18.78
2017-08-07T14:48:26.554Z,19.09
2017-08-07T14:48:48.275Z,19.44
2017-08-07T14:49:09.983Z,18.71
2017-08-07T14:49:31.722Z,18.57
2017-08-07T14:49:53.414Z,18.72
2017-08-07T14:50:15.105Z,18.58
2017-08-07T14:50:36.796Z,19.34
2017-08-07T14:50:58.509Z,18.84
2017-08-07T14:51:20.226Z,19.14
2017-08-07T14:51:41.929Z,19.46
2017-08-07T14:52:03.625Z,19.25
2017-08-07T14:52:30.125Z,18.28
2017-08-07T14:52:51.864Z,18.29
2017-08-07T14:53:13.563Z,18.76
2017-08-07T14:53:35.299Z,18.53
2017-08-07T14:53:57.057Z,18.86
2017-08-07T14:54:18.801Z,18.42
2017-08-07T14:54:40.558Z,18.40
2017-08-07T14:55:02.303Z,18.58
2017-08-07T14:56:04.826Z,18.38
2017-08-07T14:56:26.530Z,18.53
2017-08-07T14:56:48.271Z,18.06
2017-08-07T14:57:10.051Z,18.03
2017-08-07T14:57:31.812Z,18.00
2017-08-07T14:57:53.587Z,17.87
2017-08-07T14:58:16.333Z,17.91
2017-08-07T14:58:38.070Z,18.15
2017-08-07T14:59:09.321Z,18.32
2017-08-07T14:59:31.045Z,17.40
2017-08-07T14:59:52.781Z,17.52
2017-08-07T15:00:14.513Z,18.11
2017-08-07T15:00:36.240Z,18.06
2017-08-07T15:00:58.009Z,17.66
2017-08-07T15:01:19.760Z,19.19
2017-08-07T15:01:44.339Z,18.91
2017-08-07T15:02:06.123Z,18.33
2017-08-07T15:02:27.847Z,18.34
2017-08-07T15:02:49.543Z,19.44
2017-08-07T15:03:11.361Z,18.49
2017-08-07T15:03:33.054Z,18.76
2017-08-07T15:03:54.826Z,18.48
2017-08-07T15:04:16.536Z,18.50
2017-08-07T15:04:38.295Z,18.58
2017-08-07T15:05:00.052Z,19.23
2017-08-07T15:05:21.766Z,19.17
2017-08-07T15:05:43.477Z,19.21
2017-08-07T15:06:14.720Z,19.63
2017-08-07T15:06:41.264Z,19.64
2017-08-07T15:07:03.046Z,19.09
2017-08-07T15:07:24.778Z,19.46
2017-08-07T15:07:46.515Z,19.23
2017-08-07T15:08:08.213Z,19.49
2017-08-07T15:08:29.922Z,19.95
2017-08-07T15:08:51.619Z,19.09
2017-08-07T15:09:13.327Z,19.12
2017-08-07T15:09:35.043Z,19.33
2017-08-07T15:09:56.821Z,19.52
2017-08-07T15:10:18.611Z,19.70
2017-08-07T15:10:40.372Z,19.42
2017-08-07T15:11:02.130Z,19.43
2017-08-07T15:11:23.879Z,19.53
2017-08-07T15:11:45.595Z,19.42
2017-08-07T15:12:07.313Z,19.32
2017-08-07T15:12:29.097Z,19.07
2017-08-07T15:12:50.793Z,19.44
2017-08-07T15:13:12.537Z,19.56
2017-08-07T15:13:34.261Z,19.70
2017-08-07T15:13:56.009Z,19.59
2017-08-07T15:14:17.745Z,19.16
2017-08-07T15:14:49.018Z,19.02
2017-08-07T15:15:10.815Z,18.73
2017-08-07T15:15:32.590Z,18.93
2017-08-07T15:15:54.421Z,19.28
2017-08-07T15:16:16.174Z,19.07
2017-08-07T15:16:37.864Z,19.41
2017-08-07T15:16:59.569Z,19.35
2017-08-07T15:17:21.308Z,19.45
2017-08-07T15:17:43.062Z,19.45
2017-08-07T15:18:04.806Z,19.35
2017-08-07T15:18:26.524Z,19.54
2017-08-07T15:18:53.083Z,19.46
2017-08-07T15:19:51.505Z,19.27
2017-08-07T15:20:13.188Z,18.87
2017-08-07T15:20:34.946Z,19.30
2017-08-07T15:20:56.684Z,19.30
2017-08-07T15:21:18.405Z,19.82
2017-08-07T15:21:40.137Z,18.80
2017-08-07T15:22:01.869Z,19.02
2017-08-07T15:22:23.624Z,19.56
2017-08-07T15:22:45.333Z,19.63
2017-08-07T15:23:11.805Z,19.35
2017-08-07T15:23:33.502Z,19.37
2017-08-07T15:23:55.209Z,19.51
2017-08-07T15:24:16.913Z,19.46
2017-08-07T15:24:38.685Z,18.93
2017-08-07T15:25:00.416Z,19.03
2017-08-07T15:25:22.185Z,19.46
2017-08-07T15:25:44.048Z,19.72
2017-08-07T15:26:15.338Z,19.34
2017-08-07T15:26:37.110Z,19.39
2017-08-07T15:27:08.361Z,19.56
2017-08-07T15:27:31.146Z,19.65
2017-08-07T15:27:52.883Z,19.91
2017-08-07T15:28:14.666Z,19.89
2017-08-07T15:28:36.419Z,19.86
2017-08-07T15:29:07.710Z,20.19
2017-08-07T15:29:29.447Z,19.69
2017-08-07T15:30:00.711Z,19.77
2017-08-07T15:30:22.448Z,19.83
2017-08-07T15:30:44.204Z,19.37
2017-08-07T15:31:05.937Z,19.19
2017-08-07T15:31:27.678Z,19.44
2017-08-07T15:31:49.404Z,19.57
2017-08-07T15:32:11.238Z,19.55
2017-08-07T15:32:32.978Z,19.62
2017-08-07T15:32:54.710Z,19.17
2017-08-07T15:33:16.447Z,19.76
2017-08-07T15:33:38.178Z,19.61
2017-08-07T15:33:59.880Z,19.49
2017-08-07T15:34:21.614Z,18.85
2017-08-07T15:34:43.794Z,19.15
2017-08-07T15:35:05.495Z,18.83
2017-08-07T15:35:27.200Z,18.76
2017-08-07T15:35:48.944Z,19.26
2017-08-07T15:36:10.650Z,18.79
2017-08-07T15:36:32.366Z,19.95
2017-08-07T15:36:54.084Z,19.95
2017-08-07T15:37:15.839Z,19.95
2017-08-07T15:37:37.591Z,20.07
2017-08-07T15:37:59.348Z,20.04
2017-08-07T15:38:21.114Z,19.95
2017-08-07T15:38:42.883Z,19.29
2017-08-07T15:39:04.631Z,19.56
2017-08-07T15:39:26.338Z,19.04
2017-08-07T15:39:48.062Z,19.13
2017-08-07T15:40:09.821Z,18.81
2017-08-07T15:40:31.569Z,18.39
2017-08-07T15:40:53.328Z,18.81
2017-08-07T15:41:15.071Z,19.06
2017-08-07T15:41:36.804Z,19.05
2017-08-07T15:41:58.586Z,19.02
2017-08-07T15:42:20.386Z,18.86
2017-08-07T15:42:42.136Z,18.97
2017-08-07T15:43:03.892Z,19.01
2017-08-07T15:43:25.592Z,19.43
2017-08-07T15:43:47.318Z,18.99
2017-08-07T15:44:09.056Z,18.91
2017-08-07T15:44:30.866Z,19.00
2017-08-07T15:44:52.578Z,18.93
2017-08-07T15:45:14.281Z,18.58
2017-08-07T15:45:35.973Z,17.90
2017-08-07T15:45:57.696Z,18.39
2017-08-07T15:46:19.401Z,18.70
2017-08-07T15:46:45.888Z,18.22
2017-08-07T15:47:07.600Z,17.81
2017-08-07T15:47:29.344Z,18.17
2017-08-07T15:47:51.048Z,18.32
2017-08-07T15:48:12.785Z,18.73
2017-08-07T15:48:34.494Z,18.47
2017-08-07T15:48:56.211Z,18.25
2017-08-07T15:49:17.908Z,17.74
2017-08-07T15:49:39.605Z,17.94
2017-08-07T15:50:01.302Z,17.88
2017-08-07T15:50:23.018Z,18.12
2017-08-07T15:50:44.745Z,18.16
2017-08-07T15:51:06.467Z,18.29
2017-08-07T15:51:28.203Z,18.28
2017-08-07T15:51:49.948Z,18.01
2017-08-07T15:52:11.677Z,18.59
2017-08-07T15:52:33.373Z,18.14
2017-08-07T15:52:55.071Z,17.72
2017-08-07T15:53:16.762Z,17.77
2017-08-07T15:53:38.472Z,17.48
2017-08-07T15:54:00.180Z,17.52
2017-08-07T15:54:21.894Z,17.44
2017-08-07T15:54:43.594Z,17.64
2017-08-07T15:55:05.283Z,18.53
2017-08-07T15:56:03.688Z,19.37
2017-08-07T15:56:25.427Z,18.55
2017-08-07T15:56:47.287Z,18.60
2017-08-07T15:57:09.056Z,18.79
2017-08-07T15:57:30.822Z,18.35
2017-08-07T15:57:52.558Z,18.19
2017-08-07T15:58:14.293Z,18.19
2017-08-07T15:58:35.986Z,18.25
2017-08-07T15:58:57.689Z,18.52
2017-08-07T15:59:19.779Z,18.22
2017-08-07T16:00:22.304Z,18.34
2017-08-07T16:00:44.039Z,18.18
2017-08-07T16:01:05.792Z,18.59
2017-08-07T16:01:27.528Z,18.14
2017-08-07T16:01:49.272Z,18.16
2017-08-07T16:02:10.988Z,18.18
2017-08-07T16:02:32.701Z,17.85
2017-08-07T16:02:54.422Z,18.02
2017-08-07T16:03:16.124Z,18.01
2017-08-07T16:03:37.829Z,18.11
2017-08-07T16:03:59.547Z,17.90
2017-08-07T16:04:21.260Z,17.89
2017-08-07T16:04:52.536Z,17.57
2017-08-07T16:05:14.317Z,17.80
2017-08-07T16:05:36.034Z,18.09
2017-08-07T16:05:57.739Z,18.07
2017-08-07T16:06:19.472Z,18.10
2017-08-07T16:06:41.216Z,17.62
2017-08-07T16:07:02.948Z,17.27
2017-08-07T16:07:24.681Z,17.40
2017-08-07T16:07:46.440Z,17.38
2017-08-07T16:08:08.228Z,16.88
2017-08-07T16:09:10.749Z,17.20
2017-08-07T16:09:32.476Z,17.23
2017-08-07T16:09:54.198Z,17.58
2017-08-07T16:10:20.768Z,17.46
2017-08-07T16:11:56.858Z,17.54
2017-08-07T16:12:18.599Z,17.47
2017-08-07T16:12:49.858Z,17.39
2017-08-07T16:13:11.610Z,17.61
2017-08-07T16:13:33.324Z,17.18
2017-08-07T16:13:55.121Z,17.16
2017-08-07T16:14:16.841Z,17.54
2017-08-07T16:14:38.581Z,17.82
2017-08-07T16:15:00.315Z,17.58
2017-08-07T16:15:23.088Z,17.63
2017-08-07T16:15:44.820Z,17.85
2017-08-07T16:16:06.568Z,17.84
2017-08-07T16:16:28.288Z,17.65
2017-08-07T16:16:50.022Z,17.32
2017-08-07T16:17:11.743Z,17.41
2017-08-07T16:17:33.456Z,17.50
2017-08-07T16:18:35.988Z,17.09
2017-08-07T16:19:02.471Z,17.30
2017-08-07T16:19:24.176Z,17.19
2017-08-07T16:19:45.876Z,16.97
2017-08-07T16:20:07.591Z,16.74
2017-08-07T16:20:29.337Z,16.90
2017-08-07T16:20:55.813Z,16.92
2017-08-07T16:21:17.554Z,16.95
2017-08-07T16:21:46.889Z,16.90
2017-08-07T16:22:08.600Z,16.97
2017-08-07T16:22:30.361Z,16.78
2017-08-07T16:22:52.109Z,17.06
2017-08-07T16:23:13.951Z,17.00
2017-08-07T16:23:35.901Z,17.16
2017-08-07T16:23:57.587Z,17.11
2017-08-07T16:24:19.309Z,16.87
2017-08-07T16:24:41.098Z,17.11
2017-08-07T16:25:02.782Z,17.10
2017-08-07T16:25:24.503Z,17.02
2017-08-07T16:25:46.385Z,17.12
2017-08-07T16:26:08.100Z,16.83
2017-08-07T16:26:29.821Z,16.88
2017-08-07T16:26:51.608Z,16.48
2017-08-07T16:27:13.405Z,16.59
2017-08-07T16:27:44.679Z,16.83
2017-08-07T16:28:11.163Z,16.67
2017-08-07T16:28:37.645Z,16.74
2017-08-07T16:28:59.335Z,16.90
2017-08-07T16:29:30.611Z,16.76
2017-08-07T16:29:52.336Z,16.76
2017-08-07T16:30:14.039Z,16.83
2017-08-07T16:30:40.537Z,16.81
2017-08-07T16:31:02.276Z,16.90
2017-08-07T16:31:33.551Z,16.68
2017-08-07T16:31:56.315Z,16.54
2017-08-07T16:32:27.596Z,16.62
2017-08-07T16:32:49.324Z,16.81
2017-08-07T16:33:20.608Z,16.72
2017-08-07T16:33:42.348Z,16.79
2017-08-07T16:34:44.894Z,16.66
2017-08-07T16:35:06.722Z,16.68
2017-08-07T16:36:09.318Z,16.46
2017-08-07T16:36:34.013Z,16.78
2017-08-07T16:36:55.769Z,16.64
2017-08-07T16:37:17.500Z,16.51
2017-08-07T16:37:39.257Z,16.54
2017-08-07T16:38:00.952Z,16.28
2017-08-07T16:38:22.693Z,16.33
2017-08-07T16:38:44.424Z,16.34
2017-08-07T16:39:06.136Z,16.12
2017-08-07T16:39:27.860Z,16.13
2017-08-07T16:39:49.618Z,16.11
2017-08-07T16:40:11.378Z,16.23
2017-08-07T16:40:33.085Z,16.43
2017-08-07T16:40:59.560Z,16.57
2017-08-07T16:41:21.303Z,16.55
2017-08-07T16:41:43.030Z,16.75
2017-08-07T16:42:04.844Z,16.48
2017-08-07T16:42:26.520Z,16.61
2017-08-07T16:42:48.230Z,16.39
2017-08-07T16:43:09.926Z,16.55
2017-08-07T16:43:31.649Z,16.50
2017-08-07T16:43:53.352Z,16.47
2017-08-07T16:44:15.090Z,16.78
2017-08-07T16:44:36.782Z,16.76
2017-08-07T16:44:58.513Z,16.82
2017-08-07T16:45:20.216Z,16.99
2017-08-07T16:45:42.035Z,16.95
2017-08-07T16:46:13.295Z,16.96
2017-08-07T16:46:35.004Z,17.18
2017-08-07T16:46:56.695Z,17.19
2017-08-07T16:47:18.401Z,17.22
2017-08-07T16:47:40.130Z,17.24
2017-08-07T16:48:01.959Z,17.32
2017-08-07T16:48:23.696Z,17.51
2017-08-07T16:48:45.556Z,17.83
2017-08-07T16:49:07.341Z,17.86
2017-08-07T16:49:29.102Z,18.02
2017-08-07T16:49:50.847Z,18.23
2017-08-07T16:50:12.618Z,18.11
2017-08-07T16:50:34.331Z,18.04
2017-08-07T16:50:56.062Z,18.26
2017-08-07T16:51:17.822Z,18.23
2017-08-07T16:51:39.543Z,18.26
2017-08-07T16:52:01.393Z,18.53
2017-08-07T16:52:23.178Z,18.81
2017-08-07T16:52:44.948Z,19.02
2017-08-07T16:53:06.708Z,19.15